createdAt,value
2023-02-16T00:01:24.399Z,3.43
2023-02-16T00:03:27.503Z,3.43
2023-02-16T00:05:31.254Z,3.30
2023-02-16T00:07:35.291Z,3.50
2023-02-16T00:09:38.810Z,3.30
2023-02-16T00:11:52.891Z,3.43
2023-02-16T00:13:55.602Z,3.70
2023-02-16T00:15:58.365Z,3.37
2023-02-16T00:18:02.817Z,3.50
2023-02-16T00:20:07.746Z,3.87
2023-02-16T00:22:12.166Z,4.20
2023-02-16T00:24:16.267Z,3.90
2023-02-16T00:26:19.919Z,3.30
2023-02-16T00:28:23.132Z,3.30
2023-02-16T00:30:25.885Z,3.80
2023-02-16T00:32:28.605Z,3.80
2023-02-16T00:34:33.426Z,3.10
2023-02-16T00:36:36.557Z,2.87
2023-02-16T00:38:39.326Z,3.00
2023-02-16T00:40:43.529Z,3.77
2023-02-16T00:42:46.880Z,3.57
2023-02-16T00:44:50.445Z,3.80
2023-02-16T00:46:53.151Z,3.27
2023-02-16T00:48:55.864Z,3.40
2023-02-16T00:50:58.634Z,3.40
2023-02-16T00:53:02.736Z,3.37
2023-02-16T00:55:06.763Z,3.73
2023-02-16T00:57:13.678Z,3.70
2023-02-16T00:59:18.401Z,3.70
2023-02-16T01:01:22.257Z,3.90
2023-02-16T01:03:25.958Z,3.83
2023-02-16T01:05:28.765Z,3.37
2023-02-16T01:07:42.795Z,3.30
2023-02-16T01:09:56.518Z,3.37
2023-02-16T01:11:59.300Z,3.33
2023-02-16T01:14:03.348Z,3.80
2023-02-16T01:16:12.383Z,3.70
2023-02-16T01:18:16.167Z,3.40
2023-02-16T01:20:21.193Z,3.60
2023-02-16T01:22:24.310Z,3.27
2023-02-16T01:24:27.093Z,3.50
2023-02-16T01:26:29.836Z,3.37
2023-02-16T01:28:35.387Z,3.70
2023-02-16T01:30:39.390Z,4.00
2023-02-16T01:32:42.542Z,4.00
2023-02-16T01:34:45.284Z,3.50
2023-02-16T01:36:48.492Z,3.60
2023-02-16T01:38:51.222Z,4.00
2023-02-16T01:41:01.891Z,3.77
2023-02-16T01:43:07.255Z,3.60
2023-02-16T01:45:11.909Z,3.50
2023-02-16T01:47:26.101Z,3.50
2023-02-16T01:49:29.022Z,3.87
2023-02-16T01:51:34.500Z,3.90
2023-02-16T01:53:39.853Z,3.73
2023-02-16T01:55:44.183Z,3.60
2023-02-16T01:57:47.931Z,3.33
2023-02-16T02:00:05.236Z,3.40
2023-02-16T02:02:13.173Z,3.97
2023-02-16T02:04:33.374Z,4.00
2023-02-16T02:06:36.071Z,4.03
2023-02-16T02:08:41.230Z,3.23
2023-02-16T02:10:49.283Z,3.90
2023-02-16T02:12:56.434Z,3.70
2023-02-16T02:14:59.176Z,3.90
2023-02-16T02:17:04.161Z,3.70
2023-02-16T02:19:06.892Z,4.00
2023-02-16T02:21:34.062Z,3.63
2023-02-16T02:23:44.567Z,4.27
2023-02-16T02:25:58.050Z,4.20
2023-02-16T02:28:02.899Z,3.63
2023-02-16T02:30:16.436Z,4.13
2023-02-16T02:32:22.691Z,3.97
2023-02-16T02:34:29.723Z,3.87
2023-02-16T02:36:36.599Z,4.03
2023-02-16T02:38:42.191Z,4.03
2023-02-16T02:40:55.814Z,3.60
2023-02-16T02:43:06.196Z,3.73
2023-02-16T02:45:10.645Z,4.63
2023-02-16T02:47:13.935Z,3.93
2023-02-16T02:49:16.719Z,3.60
2023-02-16T02:51:29.564Z,3.90
2023-02-16T02:53:32.288Z,4.03
2023-02-16T02:55:47.070Z,3.77
2023-02-16T02:58:00.763Z,4.60
2023-02-16T03:00:17.840Z,3.53
2023-02-16T03:02:20.731Z,3.27
2023-02-16T03:04:26.107Z,4.00
2023-02-16T03:06:29.736Z,3.90
2023-02-16T03:08:34.627Z,3.60
2023-02-16T03:10:49.129Z,4.10
2023-02-16T03:12:51.886Z,3.80
2023-02-16T03:14:55.705Z,3.90
2023-02-16T03:17:12.242Z,3.30
2023-02-16T03:19:27.575Z,3.67
2023-02-16T03:21:41.270Z,3.40
2023-02-16T03:23:55.409Z,4.00
2023-02-16T03:26:09.094Z,3.10
2023-02-16T03:28:22.894Z,3.30
2023-02-16T03:30:25.766Z,4.20
2023-02-16T03:32:31.664Z,3.80
2023-02-16T03:34:34.393Z,3.87
2023-02-16T03:36:38.334Z,3.70
2023-02-16T03:38:41.129Z,4.07
2023-02-16T03:40:44.422Z,3.80
2023-02-16T03:42:50.428Z,3.70
2023-02-16T03:44:53.253Z,4.27
2023-02-16T03:46:55.984Z,4.40
2023-02-16T03:49:00.541Z,3.73
2023-02-16T03:51:03.593Z,4.03
2023-02-16T03:53:07.863Z,4.30
2023-02-16T03:55:10.738Z,3.67
2023-02-16T03:57:13.918Z,4.00
2023-02-16T03:59:16.688Z,4.17
2023-02-16T04:01:19.449Z,4.27
2023-02-16T04:03:22.230Z,3.70
2023-02-16T04:05:26.767Z,4.10
2023-02-16T04:07:31.796Z,4.30
2023-02-16T04:09:37.217Z,4.27
2023-02-16T04:11:54.361Z,3.70
2023-02-16T04:13:57.105Z,4.30
2023-02-16T04:15:59.879Z,3.70
2023-02-16T04:18:02.579Z,4.47
2023-02-16T04:20:06.391Z,3.60
2023-02-16T04:22:10.397Z,4.00
2023-02-16T04:24:13.177Z,4.00
2023-02-16T04:26:15.922Z,3.90
2023-02-16T04:28:18.982Z,4.10
2023-02-16T04:30:22.728Z,4.43
2023-02-16T04:32:25.502Z,4.27
2023-02-16T04:34:28.334Z,4.20
2023-02-16T04:36:31.941Z,4.30
2023-02-16T04:38:35.945Z,4.53
2023-02-16T04:40:38.682Z,4.73
2023-02-16T04:42:41.388Z,4.53
2023-02-16T04:44:50.164Z,4.20
2023-02-16T04:46:55.458Z,4.17
2023-02-16T04:49:00.974Z,4.27
2023-02-16T04:51:04.921Z,4.27
2023-02-16T04:53:08.238Z,4.20
2023-02-16T04:55:12.354Z,4.17
2023-02-16T04:57:15.593Z,4.20
2023-02-16T04:59:18.670Z,4.00
2023-02-16T05:01:21.935Z,4.20
2023-02-16T05:03:24.649Z,4.23
2023-02-16T05:05:27.659Z,4.07
2023-02-16T05:07:30.363Z,3.83
2023-02-16T05:09:33.414Z,3.93
2023-02-16T05:11:48.438Z,3.90
2023-02-16T05:14:05.056Z,4.17
2023-02-16T05:16:08.201Z,4.80
2023-02-16T05:18:10.993Z,4.10
2023-02-16T05:20:16.944Z,4.30
2023-02-16T05:22:25.528Z,4.50
2023-02-16T05:24:30.860Z,4.60
2023-02-16T05:26:40.503Z,4.20
2023-02-16T05:28:44.720Z,4.73
2023-02-16T05:30:53.931Z,4.83
2023-02-16T05:32:56.823Z,4.93
2023-02-16T05:34:59.512Z,4.10
2023-02-16T05:37:02.231Z,4.40
2023-02-16T05:39:05.388Z,4.90
2023-02-16T05:41:08.206Z,5.00
2023-02-16T05:43:12.215Z,4.40
2023-02-16T05:45:14.946Z,4.63
2023-02-16T05:47:18.134Z,4.83
2023-02-16T05:49:20.887Z,4.10
2023-02-16T05:51:23.628Z,4.20
2023-02-16T05:53:26.365Z,4.73
2023-02-16T05:55:29.567Z,4.40
2023-02-16T05:57:34.842Z,4.73
2023-02-16T05:59:38.897Z,4.63
2023-02-16T06:01:41.722Z,4.20
2023-02-16T06:03:44.959Z,4.27
2023-02-16T06:05:47.669Z,4.37
2023-02-16T06:07:50.426Z,4.33
2023-02-16T06:09:53.154Z,4.60
2023-02-16T06:11:56.321Z,4.60
2023-02-16T06:13:59.539Z,4.60
2023-02-16T06:16:03.825Z,4.73
2023-02-16T06:18:13.715Z,4.30
2023-02-16T06:20:25.245Z,4.73
2023-02-16T06:22:33.429Z,4.53
2023-02-16T06:24:42.098Z,4.27
2023-02-16T06:26:47.634Z,4.50
2023-02-16T06:28:59.025Z,4.77
2023-02-16T06:31:03.448Z,4.53
2023-02-16T06:33:06.724Z,5.00
2023-02-16T06:35:09.941Z,4.80
2023-02-16T06:37:12.694Z,4.27
2023-02-16T06:39:25.873Z,4.07
2023-02-16T06:41:35.862Z,4.80
2023-02-16T06:43:38.635Z,4.37
2023-02-16T06:45:56.809Z,4.60
2023-02-16T06:48:03.988Z,4.87
2023-02-16T06:50:09.737Z,5.00
2023-02-16T06:52:12.438Z,4.70
2023-02-16T06:54:15.970Z,4.27
2023-02-16T06:56:18.687Z,5.00
2023-02-16T06:58:21.361Z,4.90
2023-02-16T07:00:24.159Z,5.60
2023-02-16T07:02:27.464Z,4.63
2023-02-16T07:04:37.554Z,4.10
2023-02-16T07:06:41.213Z,4.50
2023-02-16T07:08:43.963Z,4.50
2023-02-16T07:10:49.990Z,5.17
2023-02-16T07:12:53.214Z,4.40
2023-02-16T07:14:55.969Z,4.57
2023-02-16T07:17:03.121Z,4.10
2023-02-16T07:19:07.004Z,4.63
2023-02-16T07:21:11.051Z,4.63
2023-02-16T07:23:15.944Z,4.40
2023-02-16T07:25:25.862Z,4.90
2023-02-16T07:27:31.442Z,5.23
2023-02-16T07:29:39.902Z,4.30
2023-02-16T07:31:57.997Z,4.63
2023-02-16T07:34:06.753Z,4.90
2023-02-16T07:36:11.658Z,4.77
2023-02-16T07:38:14.338Z,4.90
2023-02-16T07:40:17.409Z,4.30
2023-02-16T07:42:20.264Z,4.40
2023-02-16T07:44:26.090Z,4.70
2023-02-16T07:46:40.415Z,5.10
2023-02-16T07:48:43.486Z,4.67
2023-02-16T07:50:46.172Z,5.57
2023-02-16T07:52:50.142Z,5.70
2023-02-16T07:54:52.907Z,5.37
2023-02-16T07:56:55.628Z,5.03
2023-02-16T07:58:59.352Z,4.90
2023-02-16T08:01:10.959Z,4.70
2023-02-16T08:03:25.778Z,5.00
2023-02-16T08:05:31.412Z,5.07
2023-02-16T08:07:40.068Z,5.43
2023-02-16T08:09:50.430Z,5.10
2023-02-16T08:12:01.989Z,4.70
2023-02-16T08:14:10.334Z,4.90
2023-02-16T08:16:23.362Z,4.57
2023-02-16T08:18:55.969Z,5.00
2023-02-16T08:21:04.225Z,5.20
2023-02-16T08:23:12.627Z,4.67
2023-02-16T08:25:16.946Z,4.60
2023-02-16T08:27:25.586Z,4.53
2023-02-16T08:29:34.222Z,4.37
2023-02-16T08:31:41.629Z,4.77
2023-02-16T08:33:45.041Z,5.20
2023-02-16T08:35:48.350Z,5.03
2023-02-16T08:37:51.791Z,4.20
2023-02-16T08:39:56.166Z,4.60
2023-02-16T08:42:00.319Z,4.40
2023-02-16T08:44:03.280Z,4.77
2023-02-16T08:46:09.128Z,4.90
2023-02-16T08:48:12.029Z,5.47
2023-02-16T08:50:16.959Z,4.93
2023-02-16T08:52:19.802Z,4.87
2023-02-16T08:54:25.419Z,5.00
2023-02-16T08:56:29.706Z,4.50
2023-02-16T08:58:33.752Z,4.70
2023-02-16T09:00:38.046Z,4.80
2023-02-16T09:02:41.178Z,4.90
2023-02-16T09:04:43.944Z,4.90
2023-02-16T09:06:48.348Z,4.70
2023-02-16T09:09:02.775Z,4.83
2023-02-16T09:11:06.543Z,4.40
2023-02-16T09:13:10.651Z,4.33
2023-02-16T09:15:15.947Z,5.30
2023-02-16T09:17:19.669Z,4.73
2023-02-16T09:19:22.789Z,4.50
2023-02-16T09:21:26.919Z,5.03
2023-02-16T09:23:29.742Z,4.63
2023-02-16T09:25:32.496Z,5.03
2023-02-16T09:27:42.714Z,5.30
2023-02-16T09:29:45.430Z,4.53
2023-02-16T09:31:49.580Z,4.83
2023-02-16T09:33:52.793Z,4.80
2023-02-16T09:35:56.222Z,4.50
2023-02-16T09:37:58.950Z,4.90
2023-02-16T09:40:01.711Z,4.37
2023-02-16T09:42:08.998Z,5.10
2023-02-16T09:44:17.955Z,4.63
2023-02-16T09:46:22.670Z,5.43
2023-02-16T09:48:35.295Z,5.50
2023-02-16T09:50:53.333Z,4.90
2023-02-16T09:52:59.382Z,4.97
2023-02-16T09:55:03.967Z,4.67
2023-02-16T09:57:09.235Z,4.53
2023-02-16T09:59:14.776Z,5.00
2023-02-16T10:01:21.713Z,4.73
2023-02-16T10:03:34.096Z,4.63
2023-02-16T10:05:44.550Z,5.03
2023-02-16T10:07:56.222Z,5.13
2023-02-16T10:09:58.945Z,4.37
2023-02-16T10:12:03.627Z,4.90
2023-02-16T10:14:08.932Z,5.00
2023-02-16T10:16:13.941Z,4.90
2023-02-16T10:18:20.745Z,4.80
2023-02-16T10:20:26.432Z,4.33
2023-02-16T10:22:36.026Z,4.63
2023-02-16T10:24:42.303Z,4.90
2023-02-16T10:26:47.322Z,4.40
2023-02-16T10:28:51.494Z,5.07
2023-02-16T10:30:56.071Z,5.00
2023-02-16T10:33:00.701Z,4.70
2023-02-16T10:35:10.924Z,4.10
2023-02-16T10:37:21.231Z,4.60
2023-02-16T10:39:25.913Z,4.47
2023-02-16T10:41:31.728Z,4.50
2023-02-16T10:43:41.041Z,4.70
2023-02-16T10:45:49.509Z,4.57
2023-02-16T10:47:54.573Z,5.23
2023-02-16T10:49:57.325Z,4.57
2023-02-16T10:52:00.625Z,4.50
2023-02-16T10:54:05.622Z,4.83
2023-02-16T10:56:24.259Z,4.73
2023-02-16T10:58:27.904Z,4.73
2023-02-16T11:00:39.794Z,4.43
2023-02-16T11:02:43.574Z,4.60
2023-02-16T11:04:47.549Z,4.57
2023-02-16T11:07:05.349Z,4.50
2023-02-16T11:09:11.006Z,5.03
2023-02-16T11:11:13.718Z,4.70
2023-02-16T11:13:28.058Z,4.20
2023-02-16T11:15:30.856Z,4.30
2023-02-16T11:17:34.262Z,4.20
2023-02-16T11:19:37.625Z,4.77
2023-02-16T11:21:45.992Z,4.70
2023-02-16T11:24:02.136Z,5.10
2023-02-16T11:26:07.320Z,5.73
2023-02-16T11:28:11.924Z,4.60
2023-02-16T11:30:22.447Z,5.00
2023-02-16T11:32:25.337Z,4.60
2023-02-16T11:34:32.205Z,4.90
2023-02-16T11:36:36.636Z,4.83
2023-02-16T11:38:39.696Z,4.97
2023-02-16T11:40:42.389Z,5.20
2023-02-16T11:42:59.836Z,4.77
2023-02-16T11:45:03.091Z,5.63
2023-02-16T11:47:13.737Z,4.37
2023-02-16T11:49:23.382Z,4.80
2023-02-16T11:51:32.447Z,4.87
2023-02-16T11:53:36.169Z,5.30
2023-02-16T11:55:41.769Z,4.73
2023-02-16T11:57:45.064Z,4.53
2023-02-16T11:59:49.193Z,4.37
2023-02-16T12:02:09.919Z,5.07
2023-02-16T12:04:17.141Z,4.70
2023-02-16T12:06:31.014Z,4.80
2023-02-16T12:08:38.611Z,4.13
2023-02-16T12:10:44.925Z,4.97
2023-02-16T12:12:55.078Z,4.70
2023-02-16T12:15:03.686Z,4.60
2023-02-16T12:17:14.304Z,5.30
2023-02-16T12:19:25.911Z,5.40
2023-02-16T12:21:32.516Z,4.30
2023-02-16T12:23:40.990Z,5.80
2023-02-16T12:25:49.528Z,5.20
2023-02-16T12:27:56.357Z,5.13
2023-02-16T12:30:02.727Z,5.17
2023-02-16T12:32:12.252Z,5.53
2023-02-16T12:34:19.121Z,5.53
2023-02-16T12:36:30.793Z,5.50
2023-02-16T12:38:40.125Z,5.57
2023-02-16T12:40:48.346Z,6.20
2023-02-16T12:42:58.412Z,5.37
2023-02-16T12:45:04.641Z,5.67
2023-02-16T12:47:13.990Z,6.17
2023-02-16T12:49:18.860Z,5.77
2023-02-16T12:51:22.599Z,6.03
2023-02-16T12:53:28.065Z,5.70
2023-02-16T12:55:33.815Z,5.07
2023-02-16T12:57:36.582Z,5.33
2023-02-16T12:59:45.168Z,5.43
2023-02-16T13:01:50.835Z,5.07
2023-02-16T13:03:55.032Z,4.77
2023-02-16T13:06:07.346Z,4.77
2023-02-16T13:08:15.757Z,5.33
2023-02-16T13:10:21.604Z,5.20
2023-02-16T13:12:27.622Z,5.23
2023-02-16T13:14:32.772Z,4.93
2023-02-16T13:16:39.779Z,6.03
2023-02-16T13:18:45.330Z,5.27
2023-02-16T13:20:49.754Z,5.20
2023-02-16T13:23:11.468Z,5.03
2023-02-16T13:25:24.295Z,5.20
2023-02-16T13:27:33.469Z,5.00
2023-02-16T13:29:47.624Z,4.70
2023-02-16T13:31:55.501Z,4.73
2023-02-16T13:34:10.454Z,4.73
2023-02-16T13:36:24.411Z,4.07
2023-02-16T13:38:37.556Z,4.40
2023-02-16T13:40:52.640Z,5.07
2023-02-16T13:43:06.390Z,4.40
2023-02-16T13:45:14.837Z,4.77
2023-02-16T13:47:19.777Z,4.70
2023-02-16T13:49:32.231Z,4.83
2023-02-16T13:51:41.732Z,4.10
2023-02-16T13:53:51.132Z,4.90
2023-02-16T13:56:14.173Z,4.70
2023-02-16T13:58:32.460Z,4.73
2023-02-16T14:00:38.429Z,4.20
2023-02-16T14:02:58.807Z,4.60
2023-02-16T14:05:06.184Z,4.50
2023-02-16T14:07:24.302Z,4.30
2023-02-16T14:09:46.891Z,5.23
2023-02-16T14:12:03.429Z,4.67
2023-02-16T14:14:27.180Z,4.30
2023-02-16T14:16:33.090Z,4.80
2023-02-16T14:18:41.216Z,4.43
2023-02-16T14:20:45.216Z,4.73
2023-02-16T14:22:49.675Z,4.50
2023-02-16T14:25:05.510Z,4.97
2023-02-16T14:27:09.518Z,4.27
2023-02-16T14:29:17.214Z,4.60
2023-02-16T14:31:22.877Z,4.10
2023-02-16T14:33:31.797Z,4.93
2023-02-16T14:35:35.710Z,4.07
2023-02-16T14:37:40.821Z,4.40
2023-02-16T14:40:06.547Z,4.77
2023-02-16T14:42:10.040Z,4.73
2023-02-16T14:44:28.206Z,4.33
2023-02-16T14:46:39.211Z,3.80
2023-02-16T14:48:54.006Z,4.30
2023-02-16T14:51:16.371Z,4.47
2023-02-16T14:53:53.289Z,4.23
2023-02-16T14:56:08.703Z,4.53
2023-02-16T14:58:24.070Z,4.20
2023-02-16T15:00:30.704Z,3.90
2023-02-16T15:02:34.782Z,4.47
2023-02-16T15:04:39.734Z,4.30
2023-02-16T15:06:43.973Z,4.33
2023-02-16T15:09:13.481Z,4.13
2023-02-16T15:11:17.299Z,4.30
2023-02-16T15:13:20.500Z,4.17
2023-02-16T15:15:27.689Z,3.93
2023-02-16T15:17:32.153Z,4.17
2023-02-16T15:19:34.903Z,4.30
2023-02-16T15:21:37.599Z,4.13
2023-02-16T15:23:40.911Z,3.67
2023-02-16T15:25:44.949Z,4.00
2023-02-16T15:27:54.234Z,4.07
2023-02-16T15:30:05.920Z,3.50
2023-02-16T15:32:08.832Z,3.73
2023-02-16T15:34:13.849Z,3.80
2023-02-16T15:36:18.041Z,4.03
2023-02-16T15:38:22.450Z,4.03
2023-02-16T15:40:27.178Z,3.70
2023-02-16T15:42:31.753Z,4.00
2023-02-16T15:44:35.848Z,3.80
2023-02-16T15:46:39.660Z,3.53
2023-02-16T15:48:42.488Z,3.73
2023-02-16T15:50:45.177Z,4.33
2023-02-16T15:52:48.247Z,3.97
2023-02-16T15:54:51.069Z,4.07
2023-02-16T15:56:54.227Z,3.73
2023-02-16T15:59:00.158Z,4.23
2023-02-16T16:01:03.655Z,4.80
2023-02-16T16:03:09.304Z,4.20
2023-02-16T16:05:22.724Z,4.27
2023-02-16T16:07:27.122Z,4.30
2023-02-16T16:09:30.943Z,4.13
2023-02-16T16:11:34.280Z,3.80
2023-02-16T16:13:37.184Z,4.27
2023-02-16T16:15:42.594Z,4.27
2023-02-16T16:17:45.405Z,3.67
2023-02-16T16:19:48.129Z,4.13
2023-02-16T16:21:54.220Z,4.60
2023-02-16T16:24:01.030Z,3.90
2023-02-16T16:26:04.295Z,3.97
2023-02-16T16:28:08.069Z,3.80
2023-02-16T16:30:13.982Z,3.83
2023-02-16T16:32:20.620Z,4.07
2023-02-16T16:34:32.791Z,3.90
2023-02-16T16:36:36.728Z,3.87
2023-02-16T16:38:39.545Z,3.67
2023-02-16T16:40:42.583Z,4.10
2023-02-16T16:43:06.995Z,4.27
2023-02-16T16:45:35.129Z,3.90
2023-02-16T16:47:40.270Z,3.90
2023-02-16T16:49:48.673Z,3.83
2023-02-16T16:51:52.996Z,4.03
2023-02-16T16:53:57.286Z,3.10
2023-02-16T16:56:02.181Z,4.10
2023-02-16T16:58:06.215Z,4.10
2023-02-16T17:00:11.347Z,3.80
2023-02-16T17:02:14.206Z,3.80
2023-02-16T17:04:19.644Z,3.50
2023-02-16T17:06:22.675Z,4.50
2023-02-16T17:08:25.400Z,3.90
2023-02-16T17:10:28.907Z,3.10
2023-02-16T17:12:32.337Z,4.10
2023-02-16T17:14:35.177Z,4.27
2023-02-16T17:16:40.024Z,3.83
2023-02-16T17:18:46.962Z,4.47
2023-02-16T17:20:51.624Z,3.90
2023-02-16T17:22:55.284Z,4.10
2023-02-16T17:24:58.917Z,4.20
2023-02-16T17:27:01.697Z,3.93
2023-02-16T17:29:05.398Z,4.30
2023-02-16T17:31:08.997Z,4.00
2023-02-16T17:33:13.831Z,4.30
2023-02-16T17:35:18.426Z,4.23
2023-02-16T17:37:24.335Z,4.13
2023-02-16T17:39:28.310Z,4.10
2023-02-16T17:41:31.104Z,4.17
2023-02-16T17:43:34.313Z,4.30
2023-02-16T17:45:37.626Z,5.10
2023-02-16T17:47:40.519Z,4.97
2023-02-16T17:49:43.410Z,3.90
2023-02-16T17:51:46.560Z,4.47
2023-02-16T17:53:51.066Z,3.90
2023-02-16T17:55:54.948Z,3.90
2023-02-16T17:57:58.194Z,3.90
2023-02-16T18:00:01.810Z,4.43
2023-02-16T18:02:04.588Z,3.93
2023-02-16T18:04:07.528Z,4.10
2023-02-16T18:06:12.049Z,4.27
2023-02-16T18:08:15.249Z,4.80
2023-02-16T18:10:22.075Z,4.97
2023-02-16T18:12:28.598Z,3.97
2023-02-16T18:14:34.733Z,4.30
2023-02-16T18:16:37.880Z,4.70
2023-02-16T18:18:40.765Z,5.00
2023-02-16T18:20:43.705Z,4.83
2023-02-16T18:22:46.760Z,4.10
2023-02-16T18:24:49.667Z,4.57
2023-02-16T18:26:54.727Z,5.03
2023-02-16T18:28:57.433Z,4.30
2023-02-16T18:31:00.933Z,4.00
2023-02-16T18:33:03.684Z,4.73
2023-02-16T18:35:07.052Z,4.50
2023-02-16T18:37:09.785Z,4.27
2023-02-16T18:39:12.747Z,5.07
2023-02-16T18:41:15.491Z,4.87
2023-02-16T18:43:19.483Z,5.03
2023-02-16T18:45:22.510Z,5.50
2023-02-16T18:47:25.285Z,4.60
2023-02-16T18:49:28.015Z,5.07
2023-02-16T18:51:31.934Z,4.77
2023-02-16T18:53:37.518Z,5.10
2023-02-16T18:55:40.247Z,4.40
2023-02-16T18:57:42.987Z,4.43
2023-02-16T18:59:47.064Z,5.00
2023-02-16T19:01:55.778Z,4.20
2023-02-16T19:03:59.430Z,4.83
2023-02-16T19:06:02.389Z,4.30
2023-02-16T19:08:08.226Z,4.50
2023-02-16T19:10:12.075Z,4.90
2023-02-16T19:12:14.818Z,4.60
2023-02-16T19:14:18.549Z,4.73
2023-02-16T19:16:22.904Z,4.20
2023-02-16T19:18:26.656Z,4.40
2023-02-16T19:20:29.717Z,4.53
2023-02-16T19:22:33.736Z,5.33
2023-02-16T19:24:36.778Z,4.17
2023-02-16T19:26:39.646Z,4.60
2023-02-16T19:28:42.541Z,4.70
2023-02-16T19:30:45.440Z,4.90
2023-02-16T19:32:49.924Z,4.60
2023-02-16T19:34:52.676Z,4.70
2023-02-16T19:36:55.423Z,4.40
2023-02-16T19:38:58.689Z,5.10
2023-02-16T19:41:01.560Z,4.57
2023-02-16T19:43:04.468Z,4.47
2023-02-16T19:45:08.428Z,4.03
2023-02-16T19:47:11.815Z,4.77
2023-02-16T19:49:22.904Z,4.37
2023-02-16T19:51:25.941Z,4.07
2023-02-16T19:53:28.723Z,4.37
2023-02-16T19:55:37.242Z,4.43
2023-02-16T19:57:40.705Z,4.80
2023-02-16T19:59:43.774Z,4.23
2023-02-16T20:01:46.728Z,4.40
2023-02-16T20:03:50.651Z,4.63
2023-02-16T20:05:54.760Z,4.77
2023-02-16T20:07:57.588Z,4.33
2023-02-16T20:10:00.384Z,4.80
2023-02-16T20:12:07.534Z,4.73
2023-02-16T20:14:16.376Z,4.87
2023-02-16T20:16:25.013Z,4.40
2023-02-16T20:18:28.082Z,4.60
2023-02-16T20:20:34.232Z,4.67
2023-02-16T20:22:38.335Z,5.00
2023-02-16T20:24:41.190Z,4.30
2023-02-16T20:26:45.426Z,4.13
2023-02-16T20:28:48.586Z,4.50
2023-02-16T20:31:23.730Z,4.13
2023-02-16T20:33:27.206Z,4.17
2023-02-16T20:35:31.372Z,4.60
2023-02-16T20:37:34.238Z,4.47
2023-02-16T20:39:38.191Z,4.70
2023-02-16T20:41:40.999Z,4.00
2023-02-16T20:43:44.108Z,4.60
2023-02-16T20:45:47.040Z,4.00
2023-02-16T20:47:50.118Z,4.57
2023-02-16T20:49:52.821Z,4.23
2023-02-16T20:51:57.099Z,4.20
2023-02-16T20:54:00.000Z,4.53
2023-02-16T20:56:21.613Z,4.73
2023-02-16T20:58:27.846Z,4.37
2023-02-16T21:00:31.699Z,4.50
2023-02-16T21:02:34.466Z,4.80
2023-02-16T21:04:37.210Z,4.20
2023-02-16T21:06:40.229Z,4.60
2023-02-16T21:08:43.624Z,4.73
2023-02-16T21:10:46.376Z,3.87
2023-02-16T21:12:50.372Z,4.20
2023-02-16T21:14:53.381Z,4.60
2023-02-16T21:16:56.253Z,4.13
2023-02-16T21:18:58.987Z,4.60
2023-02-16T21:21:01.810Z,4.47
2023-02-16T21:23:05.037Z,4.07
2023-02-16T21:25:13.622Z,4.53
2023-02-16T21:27:16.435Z,4.00
2023-02-16T21:29:20.589Z,4.20
2023-02-16T21:31:25.132Z,4.40
2023-02-16T21:33:28.659Z,4.37
2023-02-16T21:35:34.102Z,4.43
2023-02-16T21:37:38.597Z,3.80
2023-02-16T21:39:52.863Z,4.40
2023-02-16T21:41:55.567Z,4.10
2023-02-16T21:44:00.780Z,4.20
2023-02-16T21:46:06.007Z,4.40
2023-02-16T21:48:21.719Z,4.27
2023-02-16T21:50:24.734Z,3.97
2023-02-16T21:52:27.564Z,4.13
2023-02-16T21:54:44.764Z,4.30
2023-02-16T21:56:50.144Z,4.93
2023-02-16T21:58:53.133Z,4.50
2023-02-16T22:00:56.498Z,4.47
2023-02-16T22:03:00.997Z,4.40
2023-02-16T22:05:03.774Z,4.20
2023-02-16T22:07:06.590Z,4.33
2023-02-16T22:09:13.208Z,3.80
2023-02-16T22:11:16.092Z,4.07
2023-02-16T22:13:18.785Z,4.40
2023-02-16T22:15:22.099Z,4.90
2023-02-16T22:17:25.866Z,4.07
2023-02-16T22:19:30.298Z,4.43
2023-02-16T22:21:33.105Z,4.20
2023-02-16T22:23:36.082Z,4.73
2023-02-16T22:25:40.565Z,4.70
2023-02-16T22:27:43.326Z,4.40
2023-02-16T22:29:46.359Z,4.50
2023-02-16T22:31:51.152Z,4.10
2023-02-16T22:33:57.260Z,4.00
2023-02-16T22:36:07.131Z,4.00
2023-02-16T22:38:10.030Z,3.97
2023-02-16T22:40:13.160Z,4.00
2023-02-16T22:42:16.038Z,4.00
2023-02-16T22:44:18.816Z,4.53
2023-02-16T22:46:21.551Z,3.83
2023-02-16T22:48:24.849Z,4.03
2023-02-16T22:50:27.597Z,4.10
2023-02-16T22:52:31.558Z,4.40
2023-02-16T22:54:34.238Z,4.00
2023-02-16T22:56:37.661Z,4.27
2023-02-16T22:58:40.402Z,4.20
2023-02-16T23:00:43.093Z,4.00
2023-02-16T23:02:46.613Z,4.17
2023-02-16T23:04:49.760Z,4.23
2023-02-16T23:06:53.485Z,4.07
2023-02-16T23:08:58.435Z,4.43
2023-02-16T23:11:04.441Z,4.30
2023-02-16T23:13:08.572Z,4.30
2023-02-16T23:15:11.587Z,4.87
2023-02-16T23:17:14.545Z,4.10
2023-02-16T23:19:18.301Z,4.60
2023-02-16T23:21:23.680Z,3.87
2023-02-16T23:23:26.466Z,4.60
2023-02-16T23:25:34.559Z,3.90
2023-02-16T23:27:37.502Z,4.40
2023-02-16T23:29:40.948Z,3.97
2023-02-16T23:31:44.350Z,4.10
2023-02-16T23:33:47.106Z,4.10
2023-02-16T23:35:50.123Z,4.13
2023-02-16T23:37:53.743Z,4.40
2023-02-16T23:39:59.291Z,4.60
2023-02-16T23:42:03.513Z,3.90
2023-02-16T23:44:06.907Z,3.90
2023-02-16T23:46:10.550Z,4.03
2023-02-16T23:48:13.362Z,4.43
2023-02-16T23:50:16.101Z,4.00
2023-02-16T23:52:19.213Z,4.03
2023-02-16T23:54:22.756Z,3.50
2023-02-16T23:56:26.403Z,4.07
2023-02-16T23:58:30.734Z,3.70
